Time;durP1;ratioP1;P1;durP2;ratioP2;P2;SDS_P1;SDS_P2;PMS_P1;PMS_P2;Temp;Humidity;BMP_temperature;BMP_pressure;BME280_temperature;BME280_humidity;BME280_pressure;Samples;Min_cycle;Max_cycle;Signal;HPM_P1;HPM_P2
2023/02/01 00:00:15;;;;;;;;;;;;;;;2.89;86.18;99923.64;105363;1289;74020;-81
2023/02/01 00:03:01;;;;;;;;;;;;;;;2.93;86.24;99929.45;105244;1288;60376;-81
2023/02/01 00:05:55;;;;;;;;;;;;;;;2.94;86.24;99923.33;105201;1288;60108;-81
2023/02/01 00:08:41;;;;;;;;;;;;;;;2.96;86.20;99924.52;105295;1288;74253;-81
2023/02/01 00:11:27;;;;;;;;;;;;;;;2.97;86.20;99918.73;105421;1288;68402;-81
2023/02/01 00:14:13;;;;;;;;;;;;;;;2.98;86.13;99918.05;105149;1288;72865;-81
2023/02/01 00:16:59;;;;;;;;;;;;;;;2.96;86.15;99908.01;105386;1291;62175;-81
2023/02/01 00:19:45;;;;;;;;;;;;;;;2.94;86.10;99914.81;105254;1287;59972;-81
2023/02/01 00:22:31;;;;;;;;;;;;;;;2.93;86.11;99910.38;105301;1288;73848;-81
2023/02/01 00:25:17;;;;;;;;;;;;;;;2.93;86.14;99909.53;105296;1289;67432;-81
2023/02/01 00:28:04;;;;;;;;;;;;;;;2.92;86.09;99910.38;105181;1289;75423;-81
2023/02/01 00:30:57;;;;;;;;;;;;;;;2.94;86.16;99917.02;105323;1288;62079;-81
2023/02/01 00:33:46;;;;;;;;;;;;;;;2.95;86.18;99925.88;105391;1288;61929;-81
2023/02/01 00:43:20;;;;;;;;;;;;;;;3.04;86.16;99934.93;105398;1289;71286;-81
2023/02/01 00:46:06;;;;;;;;;;;;;;;3.06;86.20;99945.84;105219;1294;62070;-81
2023/02/01 00:48:52;;;;;;;;;;;;;;;3.09;86.11;99941.09;105239;1288;62822;-81
2023/02/01 00:51:38;;;;;;;;;;;;;;;3.12;86.17;99948.05;105356;1289;76125;-81
2023/02/01 00:54:24;;;;;;;;;;;;;;;3.14;86.17;99944.48;105440;1289;68146;-81
2023/02/01 00:57:10;;;;;;;;;;;;;;;3.17;86.12;99940.39;105316;1291;71397;-81
2023/02/01 00:59:56;;;;;;;;;;;;;;;3.18;86.07;99940.05;105324;1290;60079;-82
2023/02/01 01:02:42;;;;;;;;;;;;;;;3.19;86.08;99941.77;105333;1288;61950;-81
2023/02/01 01:05:28;;;;;;;;;;;;;;;3.21;86.12;99936.66;105374;1291;74242;-81
2023/02/01 01:08:15;;;;;;;;;;;;;;;3.23;86.10;99940.08;105415;1294;68273;-81
2023/02/01 01:11:09;;;;;;;;;;;;;;;3.24;86.09;99932.58;105328;1288;75399;-81
2023/02/01 01:13:56;;;;;;;;;;;;;;;3.26;86.04;99931.06;105191;1293;61786;-82
2023/02/01 01:16:42;;;;;;;;;;;;;;;3.27;86.05;99926.45;105401;1289;60110;-81
2023/02/01 01:19:33;;;;;;;;;;;;;;;3.28;85.99;99929.02;105364;1292;75055;-81
2023/02/01 01:22:20;;;;;;;;;;;;;;;3.29;86.03;99920.84;105320;1289;67331;-81
2023/02/01 01:25:06;;;;;;;;;;;;;;;3.28;85.91;99920.67;105355;1290;71212;-82
2023/02/01 01:27:52;;;;;;;;;;;;;;;3.27;85.85;99928.15;105382;1289;61955;-81
2023/02/01 01:30:39;;;;;;;;;;;;;;;3.26;85.89;99926.80;105413;1290;62053;-81
2023/02/01 01:33:25;;;;;;;;;;;;;;;3.27;85.91;99927.14;105286;1289;74846;-81
2023/02/01 01:36:11;;;;;;;;;;;;;;;3.28;85.92;99921.36;105385;1291;67457;-81
2023/02/01 01:38:57;;;;;;;;;;;;;;;3.29;85.86;99925.61;105168;1294;73184;-81
2023/02/01 01:41:43;;;;;;;;;;;;;;;3.31;85.89;99921.02;105266;1289;63042;-81
2023/02/01 01:44:48;;;;;;;;;;;;;;;3.32;85.88;99915.40;105368;1289;62770;-81
2023/02/01 01:47:41;;;;;;;;;;;;;;;3.36;85.87;99928.70;105255;1290;77376;-82
2023/02/01 01:50:28;;;;;;;;;;;;;;;3.37;85.87;99922.91;105477;1294;67423;-81
2023/02/01 01:53:17;;;;;;;;;;;;;;;3.39;85.81;99918.31;105357;1292;71482;-81
2023/02/01 01:56:04;;;;;;;;;;;;;;;3.40;85.87;99914.05;105377;1289;61945;-83
2023/02/01 01:58:52;;;;;;;;;;;;;;;3.41;85.86;99922.91;105384;1292;62221;-82
2023/02/01 02:01:38;;;;;;;;;;;;;;;3.42;85.80;99913.73;105251;1289;76829;-81
2023/02/01 02:04:24;;;;;;;;;;;;;;;3.44;85.79;99913.22;105344;1289;67153;-81
2023/02/01 02:07:14;;;;;;;;;;;;;;;3.45;85.77;99913.38;105216;1287;71281;-81
2023/02/01 02:10:00;;;;;;;;;;;;;;;3.46;85.76;99908.79;105280;1289;61971;-81
2023/02/01 02:12:48;;;;;;;;;;;;;;;3.47;85.78;99914.06;105246;1288;61965;-81
2023/02/01 02:15:36;;;;;;;;;;;;;;;3.47;85.78;99915.60;105382;1289;73988;-81
2023/02/01 02:18:31;;;;;;;;;;;;;;;3.48;85.74;99908.95;105378;1292;67239;-81
2023/02/01 02:21:36;;;;;;;;;;;;;;;3.48;85.70;99908.11;105320;1292;71286;-81
2023/02/01 02:24:45;;;;;;;;;;;;;;;3.49;85.70;99907.59;105359;1288;62091;-82
2023/02/01 02:27:50;;;;;;;;;;;;;;;3.49;85.78;99910.33;104616;1297;62247;-81
2023/02/01 02:30:57;;;;;;;;;;;;;;;3.50;85.63;99917.64;104681;1296;75736;-81
2023/02/01 02:33:58;;;;;;;;;;;;;;;3.51;85.69;99916.63;104394;1302;67596;-81
2023/02/01 02:37:01;;;;;;;;;;;;;;;3.51;85.67;99919.02;104406;1303;73956;-81
2023/02/01 02:40:10;;;;;;;;;;;;;;;3.52;85.71;99929.91;104454;1299;62152;-81
2023/02/01 02:49:36;;;;;;;;;;;;;;;3.53;85.65;99927.54;103680;1306;296791;-81
2023/02/01 02:55:28;;;;;;;;;;;;;;;3.50;85.63;99926.52;103922;1305;62094;-81
2023/02/01 03:04:25;;;;;;;;;;;;;;;3.40;85.52;99913.20;104097;1302;68958;-81
2023/02/01 03:07:34;;;;;;;;;;;;;;;3.34;85.56;99912.34;104210;1305;71314;-81
2023/02/01 03:10:29;;;;;;;;;;;;;;;3.29;85.58;99915.05;104394;1294;61646;-81
2023/02/01 03:13:20;;;;;;;;;;;;;;;3.26;85.58;99917.60;104833;1298;60315;-81
2023/02/01 03:16:26;;;;;;;;;;;;;;;3.23;85.65;99913.84;104841;1298;74482;-81
2023/02/01 03:19:19;;;;;;;;;;;;;;;3.22;85.60;99915.88;104734;1288;68414;-81
2023/02/01 03:22:11;;;;;;;;;;;;;;;3.22;85.68;99920.66;105378;1288;71361;-81
2023/02/01 03:25:27;;;;;;;;;;;;;;;3.23;85.70;99921.00;105377;1288;61959;-81
2023/02/01 03:28:15;;;;;;;;;;;;;;;3.22;85.59;99908.05;104843;1294;60111;-81
2023/02/01 03:31:02;;;;;;;;;;;;;;;3.23;85.61;99916.73;104833;1297;75433;-80
2023/02/01 03:33:48;;;;;;;;;;;;;;;3.24;85.57;99912.66;104814;1292;68341;-80
2023/02/01 03:36:34;;;;;;;;;;;;;;;3.25;85.64;99913.34;104850;1297;71578;-81
2023/02/01 03:39:29;;;;;;;;;;;;;;;3.26;85.63;99916.41;104753;1294;62377;-81
2023/02/01 03:42:20;;;;;;;;;;;;;;;3.27;85.63;99919.14;104804;1294;62086;-81
2023/02/01 03:45:29;;;;;;;;;;;;;;;3.28;85.58;99915.73;104696;1295;74110;-80
2023/02/01 03:48:16;;;;;;;;;;;;;;;3.29;85.51;99915.91;104772;1294;68810;-81
2023/02/01 03:51:05;;;;;;;;;;;;;;;3.30;85.55;99917.27;104812;1294;71430;-80
2023/02/01 03:53:52;;;;;;;;;;;;;;;3.31;85.43;99911.65;104777;1298;62118;-80
2023/02/01 03:56:42;;;;;;;;;;;;;;;3.34;85.54;99913.36;104851;1294;61950;-81
2023/02/01 03:59:30;;;;;;;;;;;;;;;3.36;85.51;99917.46;104865;1294;75464;-81
2023/02/01 04:02:16;;;;;;;;;;;;;;;3.38;85.52;99927.34;104796;1294;67459;-81
2023/02/01 04:05:02;;;;;;;;;;;;;;;3.40;85.50;99916.77;105018;1288;71284;-80
2023/02/01 04:07:48;;;;;;;;;;;;;;;3.42;85.52;99913.04;105305;1288;60598;-80
2023/02/01 04:10:34;;;;;;;;;;;;;;;3.43;85.50;99912.70;105203;1288;59715;-80
2023/02/01 04:13:20;;;;;;;;;;;;;;;3.44;85.42;99908.61;105360;1288;75347;-81
2023/02/01 04:16:06;;;;;;;;;;;;;;;3.45;85.47;99903.84;105356;1292;66195;-81
2023/02/01 04:18:52;;;;;;;;;;;;;;;3.47;85.41;99904.18;105297;1289;72248;-80
2023/02/01 04:21:38;;;;;;;;;;;;;;;3.47;85.38;99900.78;105287;1288;60546;-81
2023/02/01 04:24:24;;;;;;;;;;;;;;;3.48;85.36;99906.05;105319;1288;64297;-81
2023/02/01 04:27:10;;;;;;;;;;;;;;;3.49;85.38;99899.42;105190;1288;74059;-81
2023/02/01 04:29:56;;;;;;;;;;;;;;;3.51;85.33;99899.08;105259;1288;67215;-80
2023/02/01 04:32:42;;;;;;;;;;;;;;;3.52;85.37;99897.38;105281;1288;72544;-80
2023/02/01 04:35:28;;;;;;;;;;;;;;;3.52;85.22;99893.80;105333;1288;60154;-81
2023/02/01 04:38:14;;;;;;;;;;;;;;;3.52;85.19;99888.52;105265;1289;61888;-80
2023/02/01 04:41:00;;;;;;;;;;;;;;;3.52;85.18;99891.08;105303;1288;74182;-81
2023/02/01 04:43:47;;;;;;;;;;;;;;;3.53;85.21;99875.23;105436;1287;71364;-81
2023/02/01 04:46:33;;;;;;;;;;;;;;;3.56;85.23;99881.19;105243;1293;72574;-80
2023/02/01 04:49:21;;;;;;;;;;;;;;;3.56;85.23;99872.33;105195;1288;62081;-81
2023/02/01 04:52:07;;;;;;;;;;;;;;;3.58;85.22;99870.45;105256;1288;61923;-81
2023/02/01 04:54:57;;;;;;;;;;;;;;;3.60;85.24;99871.99;105342;1292;74198;-81
2023/02/01 04:57:43;;;;;;;;;;;;;;;3.62;85.20;99872.17;105353;1287;67445;-81
2023/02/01 05:00:29;;;;;;;;;;;;;;;3.63;85.09;99870.45;105234;1288;71408;-80
2023/02/01 05:03:15;;;;;;;;;;;;;;;3.64;85.14;99869.75;105299;1288;62134;-81
2023/02/01 05:06:03;;;;;;;;;;;;;;;3.65;85.16;99866.85;105431;1288;63195;-81
2023/02/01 05:08:50;;;;;;;;;;;;;;;3.65;85.06;99870.61;105217;1288;76863;-81
2023/02/01 05:14:41;;;;;;;;;;;;;;;3.61;85.01;99873.86;105254;1288;72403;-81
2023/02/01 05:17:27;;;;;;;;;;;;;;;3.59;84.97;99873.19;105315;1294;61840;-81
2023/02/01 05:20:13;;;;;;;;;;;;;;;3.59;85.00;99875.06;105330;1293;59958;-80
2023/02/01 05:22:59;;;;;;;;;;;;;;;3.59;84.97;99873.36;105280;1288;75204;-80
2023/02/01 05:25:45;;;;;;;;;;;;;;;3.60;85.01;99878.63;105180;1288;68545;-81
2023/02/01 05:28:32;;;;;;;;;;;;;;;3.61;85.06;99875.23;98022;1288;10004175;-80
2023/02/01 05:31:18;;;;;;;;;;;;;;;3.60;85.09;99880.01;105216;1288;75481;-81
2023/02/01 05:34:04;;;;;;;;;;;;;;;3.62;85.03;99880.52;105221;1289;68544;-81
2023/02/01 05:36:50;;;;;;;;;;;;;;;3.64;85.04;99878.62;105248;1288;71325;-80
2023/02/01 05:39:37;;;;;;;;;;;;;;;3.64;85.03;99880.48;105246;1288;62227;-81
2023/02/01 05:42:23;;;;;;;;;;;;;;;3.66;84.96;99876.73;105262;1288;62005;-81
2023/02/01 05:45:09;;;;;;;;;;;;;;;3.68;85.02;99879.63;105289;1288;75915;-80
2023/02/01 05:47:55;;;;;;;;;;;;;;;3.69;85.02;99885.09;105343;1288;68966;-80
2023/02/01 05:50:41;;;;;;;;;;;;;;;3.70;84.97;99888.66;105321;1288;72551;-81
2023/02/01 05:53:27;;;;;;;;;;;;;;;3.70;84.92;99883.04;105327;1289;62013;-81
2023/02/01 05:56:13;;;;;;;;;;;;;;;3.69;84.78;99885.77;105194;1288;62978;-80
2023/02/01 05:58:59;;;;;;;;;;;;;;;3.69;84.85;99884.58;105295;1288;74549;-80
2023/02/01 06:01:45;;;;;;;;;;;;;;;3.70;84.84;99887.98;105389;1292;67308;-81
2023/02/01 06:04:31;;;;;;;;;;;;;;;3.70;84.87;99893.61;105335;1288;71336;-80
2023/02/01 06:07:17;;;;;;;;;;;;;;;3.71;84.90;99889.52;105388;1289;59781;-80
2023/02/01 06:10:04;;;;;;;;;;;;;;;3.71;84.91;99892.25;105336;1288;62945;-81
2023/02/01 06:12:50;;;;;;;;;;;;;;;3.70;84.85;99887.30;105420;1288;74017;-80
2023/02/01 06:15:37;;;;;;;;;;;;;;;3.70;84.84;99890.03;105367;1288;68587;-81
2023/02/01 06:18:23;;;;;;;;;;;;;;;3.70;84.84;99888.33;105238;1288;71306;-80
2023/02/01 06:21:09;;;;;;;;;;;;;;;3.70;84.82;99889.69;105214;1288;60796;-80
2023/02/01 06:23:57;;;;;;;;;;;;;;;3.70;84.83;99890.38;105220;1288;59772;-80
2023/02/01 06:26:43;;;;;;;;;;;;;;;3.69;84.79;99889.69;105363;1288;75469;-80
2023/02/01 06:29:29;;;;;;;;;;;;;;;3.69;84.83;99893.10;105170;1289;66238;-81
2023/02/01 06:32:17;;;;;;;;;;;;;;;3.68;84.88;99897.52;105260;1287;70191;-82
2023/02/01 06:35:03;;;;;;;;;;;;;;;3.68;84.85;99899.58;105210;1288;61991;-80
2023/02/01 06:37:49;;;;;;;;;;;;;;;3.68;84.83;99905.70;105238;1288;62188;-81
2023/02/01 06:40:36;;;;;;;;;;;;;;;3.67;84.86;99908.09;105184;1288;75274;-80
2023/02/01 06:43:22;;;;;;;;;;;;;;;3.65;84.92;99913.55;105299;1288;67138;-81
2023/02/01 06:46:11;;;;;;;;;;;;;;;3.64;84.90;99919.17;105298;1288;71213;-80
2023/02/01 06:48:57;;;;;;;;;;;;;;;3.63;84.96;99921.25;105324;1289;61962;-81
2023/02/01 06:51:43;;;;;;;;;;;;;;;3.61;85.02;99919.20;105291;1289;59683;-81
2023/02/01 06:54:32;;;;;;;;;;;;;;;3.60;85.02;99923.97;105197;1288;74150;-81
2023/02/01 06:57:18;;;;;;;;;;;;;;;3.59;85.06;99927.20;105357;1288;68030;-81
2023/02/01 07:00:05;;;;;;;;;;;;;;;3.58;85.07;99934.02;105168;1288;71249;-81
2023/02/01 07:02:51;;;;;;;;;;;;;;;3.57;85.07;99937.77;105192;1288;62066;-81
2023/02/01 07:05:37;;;;;;;;;;;;;;;3.54;85.04;99934.02;105179;1288;61981;-81
2023/02/01 07:08:23;;;;;;;;;;;;;;;3.48;85.07;99934.86;105173;1289;74230;-81
2023/02/01 07:11:11;;;;;;;;;;;;;;;3.44;85.12;99930.92;105369;1287;67133;-81
2023/02/01 07:13:57;;;;;;;;;;;;;;;3.42;85.14;99933.31;105285;1288;75461;-81
2023/02/01 07:16:43;;;;;;;;;;;;;;;3.42;85.20;99934.67;105167;1288;60459;-81
2023/02/01 07:19:29;;;;;;;;;;;;;;;3.40;85.20;99931.94;105280;1288;62076;-81
2023/02/01 07:22:18;;;;;;;;;;;;;;;3.36;85.18;99927.34;105240;1291;76767;-81
2023/02/01 07:25:05;;;;;;;;;;;;;;;3.32;85.22;99923.92;105215;1288;69994;-81
2023/02/01 07:27:51;;;;;;;;;;;;;;;3.29;85.29;99922.55;105332;1287;71559;-82
2023/02/01 07:30:37;;;;;;;;;;;;;;;3.27;85.30;99920.84;101314;1288;5179539;-81
2023/02/01 07:33:25;;;;;;;;;;;;;;;3.27;85.31;99924.08;105431;1288;73981;-82
2023/02/01 07:36:12;;;;;;;;;;;;;;;3.27;85.37;99922.55;105204;1289;69683;-81
2023/02/01 07:38:59;;;;;;;;;;;;;;;3.27;85.37;99919.98;105202;1288;72358;-81
2023/02/01 07:41:45;;;;;;;;;;;;;;;3.29;85.45;99919.14;105182;1288;60067;-81
2023/02/01 07:44:31;;;;;;;;;;;;;;;3.31;85.41;99917.95;105227;1288;61981;-81
2023/02/01 07:47:17;;;;;;;;;;;;;;;3.33;85.49;99916.09;105271;1288;74003;-81
2023/02/01 07:50:04;;;;;;;;;;;;;;;3.35;85.48;99914.22;105275;1288;67212;-82
2023/02/01 07:52:50;;;;;;;;;;;;;;;3.36;85.43;99913.19;105135;1288;72613;-81
2023/02/01 07:55:40;;;;;;;;;;;;;;;3.38;85.46;99906.90;105341;1287;62175;-81
2023/02/01 07:58:26;;;;;;;;;;;;;;;3.41;85.50;99902.81;105203;1289;62018;-81
2023/02/01 08:01:24;;;;;;;;;;;;;;;3.45;85.48;99901.80;105211;1287;74908;-82
2023/02/01 08:04:13;;;;;;;;;;;;;;;3.47;85.41;99898.90;105334;1288;71415;-81
2023/02/01 08:06:59;;;;;;;;;;;;;;;3.49;85.46;99896.86;105210;1287;72089;-81
2023/02/01 08:09:45;;;;;;;;;;;;;;;3.51;85.50;99891.59;105316;1288;61883;-82
2023/02/01 08:12:32;;;;;;;;;;;;;;;3.54;85.47;99891.41;105231;1288;64509;-81
2023/02/01 08:15:18;;;;;;;;;;;;;;;3.59;85.49;99897.38;105350;1288;75464;-82
2023/02/01 08:18:04;;;;;;;;;;;;;;;3.69;85.59;99896.34;105323;1288;67216;-82
2023/02/01 08:20:50;;;;;;;;;;;;;;;3.78;85.52;99894.80;105263;1288;71149;-81
2023/02/01 08:23:39;;;;;;;;;;;;;;;3.82;85.44;99892.77;105329;1292;60298;-82
2023/02/01 08:26:26;;;;;;;;;;;;;;;3.85;85.46;99892.59;105157;1289;61917;-81
2023/02/01 08:29:13;;;;;;;;;;;;;;;3.89;85.50;99889.52;105342;1288;73954;-82
2023/02/01 08:31:59;;;;;;;;;;;;;;;3.93;85.43;99887.81;105268;1293;67293;-81
2023/02/01 08:34:45;;;;;;;;;;;;;;;3.95;85.42;99889.35;105203;1289;73954;-81
2023/02/01 08:37:31;;;;;;;;;;;;;;;3.98;85.43;99884.91;105201;1288;60076;-81
2023/02/01 08:40:18;;;;;;;;;;;;;;;4.02;85.47;99884.21;105311;1288;61546;-81
2023/02/01 08:43:04;;;;;;;;;;;;;;;4.06;85.48;99880.81;105204;1290;74238;-82
2023/02/01 08:45:53;;;;;;;;;;;;;;;4.09;85.41;99879.44;105175;1288;69982;-82
2023/02/01 08:48:40;;;;;;;;;;;;;;;4.13;85.43;99875.17;105230;1288;71579;-81
2023/02/01 08:51:26;;;;;;;;;;;;;;;4.17;85.43;99872.75;105364;1288;62105;-82
2023/02/01 08:54:12;;;;;;;;;;;;;;;4.24;85.46;99867.61;105329;1287;60243;-82
2023/02/01 08:56:58;;;;;;;;;;;;;;;4.34;85.53;99872.36;105290;1288;73550;-81
2023/02/01 08:59:44;;;;;;;;;;;;;;;4.44;85.43;99865.86;105226;1288;68458;-82
2023/02/01 09:02:30;;;;;;;;;;;;;;;4.58;85.51;99873.31;105147;1289;71840;-82
2023/02/01 09:05:19;;;;;;;;;;;;;;;4.75;85.49;99863.48;97871;1287;5003576;-81
2023/02/01 09:08:05;;;;;;;;;;;;;;;4.86;85.35;99865.15;105320;1288;74071;-81
2023/02/01 09:10:51;;;;;;;;;;;;;;;4.95;85.29;99868.18;105355;1288;67214;-81
2023/02/01 09:13:37;;;;;;;;;;;;;;;5.05;85.26;99869.83;105277;1288;70175;-81
2023/02/01 09:16:23;;;;;;;;;;;;;;;5.08;85.06;99873.23;105342;1287;62498;-82
2023/02/01 09:19:10;;;;;;;;;;;;;;;5.11;85.14;99875.61;105350;1287;61937;-82
2023/02/01 09:21:56;;;;;;;;;;;;;;;5.18;85.20;99876.76;105313;1287;74050;-82
2023/02/01 09:24:42;;;;;;;;;;;;;;;5.26;85.27;99876.85;105420;1287;67307;-82
2023/02/01 09:27:28;;;;;;;;;;;;;;;5.34;85.18;99879.02;105302;1288;71279;-81
2023/02/01 09:30:14;;;;;;;;;;;;;;;5.42;85.26;99873.33;105168;1288;62350;-82
2023/02/01 09:33:00;;;;;;;;;;;;;;;5.42;84.91;99869.23;105330;1288;62855;-81
2023/02/01 09:35:46;;;;;;;;;;;;;;;5.39;84.96;99862.76;105375;1288;75662;-81
2023/02/01 09:38:32;;;;;;;;;;;;;;;5.38;85.00;99870.80;105243;1288;68105;-81
2023/02/01 09:41:42;;;;;;;;;;;;;;;5.41;85.02;99864.96;105142;1293;74575;-81
2023/02/01 09:44:41;;;;;;;;;;;;;;;5.46;85.04;99867.14;105889;1294;59834;-82
2023/02/01 09:47:27;;;;;;;;;;;;;;;5.50;84.98;99866.27;105874;1293;59703;-82
2023/02/01 09:50:22;;;;;;;;;;;;;;;5.50;84.72;99863.52;104901;1294;74205;-82
2023/02/01 09:53:21;;;;;;;;;;;;;;;5.52;84.85;99865.39;104844;1293;68611;-82
2023/02/01 09:56:25;;;;;;;;;;;;;;;5.50;84.70;99866.77;104866;1294;72788;-82
2023/02/01 09:59:29;;;;;;;;;;;;;;;5.43;84.72;99871.79;104762;1293;60078;-81
2023/02/01 10:02:21;;;;;;;;;;;;;;;5.34;84.76;99871.16;104855;1293;61982;-81
2023/02/01 10:05:23;;;;;;;;;;;;;;;5.24;84.74;99868.14;104769;1296;74163;-82
2023/02/01 10:08:35;;;;;;;;;;;;;;;5.18;84.62;99866.67;104793;1294;67295;-82
2023/02/01 10:11:24;;;;;;;;;;;;;;;5.10;84.85;99864.33;104694;1294;71428;-81
2023/02/01 10:14:16;;;;;;;;;;;;;;;5.09;84.91;99864.17;104829;1294;59996;-82
2023/02/01 10:17:23;;;;;;;;;;;;;;;5.06;84.81;99856.50;104719;1294;61945;-81
2023/02/01 10:20:39;;;;;;;;;;;;;;;5.00;84.82;99851.92;104797;1293;75924;-81
2023/02/01 10:23:25;;;;;;;;;;;;;;;4.94;84.89;99844.61;104821;1296;67942;-81
2023/02/01 10:26:18;;;;;;;;;;;;;;;4.90;84.88;99837.29;104560;1297;74042;-81
2023/02/01 10:29:10;;;;;;;;;;;;;;;4.90;85.00;99837.98;104750;1294;61153;-82
2023/02/01 10:31:57;;;;;;;;;;;;;;;4.88;84.92;99840.55;104735;1294;61942;-81
2023/02/01 10:34:46;;;;;;;;;;;;;;;4.85;84.82;99835.27;104609;1295;74013;-81
2023/02/01 10:37:33;;;;;;;;;;;;;;;4.83;84.92;99833.73;104667;1295;68077;-82
2023/02/01 10:40:21;;;;;;;;;;;;;;;4.79;84.80;99830.17;104754;1295;71835;-81
2023/02/01 10:43:09;;;;;;;;;;;;;;;4.74;84.83;99828.66;104413;1296;208779;-81
2023/02/01 10:45:56;;;;;;;;;;;;;;;4.74;84.95;99827.98;104682;1295;61862;-81
2023/02/01 10:48:42;;;;;;;;;;;;;;;4.73;84.91;99827.31;104731;1294;74203;-81
2023/02/01 10:51:42;;;;;;;;;;;;;;;4.73;84.94;99830.21;104728;1294;70087;-82
2023/02/01 10:54:37;;;;;;;;;;;;;;;4.71;85.04;99826.45;104630;1297;71351;-81
2023/02/01 10:57:25;;;;;;;;;;;;;;;4.71;85.04;99827.83;104723;1296;60629;-82
2023/02/01 11:00:21;;;;;;;;;;;;;;;4.71;85.07;99830.55;105176;1287;60205;-81
2023/02/01 11:03:26;;;;;;;;;;;;;;;4.67;85.00;99831.45;105290;1287;74144;-81
2023/02/01 11:06:22;;;;;;;;;;;;;;;4.65;85.12;99828.23;105160;1288;67892;-82
2023/02/01 11:09:09;;;;;;;;;;;;;;;4.62;85.14;99826.02;105333;1287;71132;-81
2023/02/01 11:11:57;;;;;;;;;;;;;;;4.63;85.16;99826.86;105321;1287;63200;-81
2023/02/01 11:14:43;;;;;;;;;;;;;;;4.65;85.22;99829.76;105160;1288;64102;-81
2023/02/01 11:17:35;;;;;;;;;;;;;;;4.68;85.28;99825.81;105226;1288;74200;-81
2023/02/01 11:20:35;;;;;;;;;;;;;;;4.69;85.25;99826.98;105296;1290;67607;-81
2023/02/01 11:23:25;;;;;;;;;;;;;;;4.72;85.24;99820.65;105347;1288;71256;-82
2023/02/01 11:26:19;;;;;;;;;;;;;;;4.73;85.20;99819.80;105217;1288;62529;-81
2023/02/01 11:29:11;;;;;;;;;;;;;;;4.71;85.19;99825.26;105322;1288;62195;-81
2023/02/01 11:31:59;;;;;;;;;;;;;;;4.67;85.12;99818.48;105359;1288;75151;-81
2023/02/01 11:34:47;;;;;;;;;;;;;;;4.68;85.22;99820.17;105291;1287;67177;-81
2023/02/01 11:37:36;;;;;;;;;;;;;;;4.66;85.13;99814.39;105256;1293;73605;-81
2023/02/01 11:40:23;;;;;;;;;;;;;;;4.63;85.11;99814.08;105342;1288;61937;-81
2023/02/01 11:43:15;;;;;;;;;;;;;;;4.60;85.03;99814.42;105322;1288;61994;-81
2023/02/01 11:46:03;;;;;;;;;;;;;;;4.58;85.03;99816.48;105223;1288;75329;-81
2023/02/01 11:48:49;;;;;;;;;;;;;;;4.59;85.11;99818.02;105344;1288;66620;-82
2023/02/01 11:51:53;;;;;;;;;;;;;;;4.59;85.04;99816.82;105215;1288;71160;-81
2023/02/01 11:55:06;;;;;;;;;;;;;;;4.59;85.00;99817.33;105324;1287;62109;-82
2023/02/01 11:58:01;;;;;;;;;;;;;;;4.60;85.13;99824.84;105318;1288;62073;-81
2023/02/01 12:00:59;;;;;;;;;;;;;;;4.58;85.05;99825.00;105313;1293;75313;-81
2023/02/01 12:04:00;;;;;;;;;;;;;;;4.57;85.07;99826.55;105372;1288;68889;-82
2023/02/01 12:06:51;;;;;;;;;;;;;;;4.53;85.00;99825.37;105285;1288;70419;-81
2023/02/01 12:09:37;;;;;;;;;;;;;;;4.51;85.02;99822.30;105332;1288;62081;-82
2023/02/01 12:12:39;;;;;;;;;;;;;;;4.49;84.94;99819.77;105351;1290;61889;-82
2023/02/01 12:15:26;;;;;;;;;;;;;;;4.48;84.95;99813.10;105347;1288;75292;-81
2023/02/01 12:18:12;;;;;;;;;;;;;;;4.47;84.96;99816.35;105333;1288;68361;-81
2023/02/01 12:21:19;;;;;;;;;;;;;;;4.49;84.97;99813.27;105332;1288;72492;-81
2023/02/01 12:24:05;;;;;;;;;;;;;;;4.53;84.99;99810.18;104650;1296;61870;-81
2023/02/01 12:27:17;;;;;;;;;;;;;;;4.53;84.84;99812.23;104675;1296;62098;-81
2023/02/01 12:30:23;;;;;;;;;;;;;;;4.50;84.80;99805.25;104791;1296;74117;-82
2023/02/01 12:33:49;;;;;;;;;;;;;;;4.48;84.78;99798.26;104105;1302;68157;-81
2023/02/01 12:37:08;;;;;;;;;;;;;;;4.47;84.78;99797.59;103782;1309;72879;-81
2023/02/01 12:40:12;;;;;;;;;;;;;;;4.48;84.76;99794.85;103458;1307;62154;-81
2023/02/01 12:43:06;;;;;;;;;;;;;;;4.49;84.77;99793.14;103631;1308;60480;-82
2023/02/01 12:45:55;;;;;;;;;;;;;;;4.48;84.70;99794.33;103650;1308;73927;-82
2023/02/01 12:48:42;;;;;;;;;;;;;;;4.48;84.70;99790.91;103557;1309;67352;-81
2023/02/01 12:51:33;;;;;;;;;;;;;;;4.49;84.73;99790.74;103639;1308;72548;-81
2023/02/01 12:54:22;;;;;;;;;;;;;;;4.50;84.70;99792.27;103715;1308;62637;-81
2023/02/01 12:57:23;;;;;;;;;;;;;;;4.53;84.75;99789.37;103642;1308;60190;-82
2023/02/01 13:00:24;;;;;;;;;;;;;;;4.60;84.81;99790.01;103830;1308;75091;-81
2023/02/01 13:03:29;;;;;;;;;;;;;;;4.69;84.84;99781.57;104040;1305;68770;-81
2023/02/01 13:06:17;;;;;;;;;;;;;;;4.76;84.81;99778.80;103982;1305;73077;-82
2023/02/01 13:09:21;;;;;;;;;;;;;;;4.79;84.62;99779.98;104603;1296;61975;-81
2023/02/01 13:12:17;;;;;;;;;;;;;;;4.79;84.69;99783.73;105306;1288;60435;-81
2023/02/01 13:15:09;;;;;;;;;;;;;;;4.80;84.69;99781.00;105228;1288;74923;-82
2023/02/01 13:17:59;;;;;;;;;;;;;;;4.81;84.71;99785.43;105162;1288;69916;-81
2023/02/01 13:20:45;;;;;;;;;;;;;;;4.84;84.73;99783.02;105204;1293;73969;-81
2023/02/01 13:23:34;;;;;;;;;;;;;;;4.89;84.72;99776.84;105318;1288;62064;-81
2023/02/01 13:26:20;;;;;;;;;;;;;;;4.97;84.81;99772.86;105218;1293;61843;-81
2023/02/01 13:29:10;;;;;;;;;;;;;;;5.06;84.76;99778.79;105342;1287;74204;-81
2023/02/01 13:32:17;;;;;;;;;;;;;;;5.08;84.66;99783.89;105225;1292;67448;-81
2023/02/01 13:35:29;;;;;;;;;;;;;;;5.08;84.60;99779.45;105278;1288;72926;-81
2023/02/01 13:38:34;;;;;;;;;;;;;;;5.06;84.58;99781.34;105071;1290;60784;-81
2023/02/01 13:41:24;;;;;;;;;;;;;;;5.01;84.52;99778.13;105269;1288;61402;-81
2023/02/01 13:44:13;;;;;;;;;;;;;;;4.97;84.59;99779.52;105339;1287;74258;-81
2023/02/01 13:47:10;;;;;;;;;;;;;;;4.92;84.49;99788.60;105329;1288;68260;-81
2023/02/01 13:49:58;;;;;;;;;;;;;;;4.89;84.58;99795.45;105194;1288;71211;-82
2023/02/01 13:52:45;;;;;;;;;;;;;;;4.83;84.57;99798.05;105317;1287;59801;-81
2023/02/01 13:55:36;;;;;;;;;;;;;;;4.78;84.64;99799.11;105223;1288;62817;-81
2023/02/01 13:58:33;;;;;;;;;;;;;;;4.73;84.72;99801.02;105198;1288;76847;-81
2023/02/01 14:01:42;;;;;;;;;;;;;;;4.66;84.71;99801.59;105301;1288;67248;-81
2023/02/01 14:04:50;;;;;;;;;;;;;;;4.63;84.78;99799.90;104570;1297;72373;-81
2023/02/01 14:07:36;;;;;;;;;;;;;;;4.61;84.76;99797.02;104575;1297;62002;-81
2023/02/01 14:10:41;;;;;;;;;;;;;;;4.58;84.84;99797.02;104551;1297;61991;-81
2023/02/01 14:13:32;;;;;;;;;;;;;;;4.55;84.84;99794.14;104576;1296;74191;-82
2023/02/01 14:16:18;;;;;;;;;;;;;;;4.50;84.78;99795.35;104556;1296;72940;-81
2023/02/01 14:19:09;;;;;;;;;;;;;;;4.45;84.80;99790.25;104513;1296;72943;-81
2023/02/01 14:22:01;;;;;;;;;;;;;;;4.41;84.79;99796.58;104604;1296;62049;-81
2023/02/01 14:24:53;;;;;;;;;;;;;;;4.39;84.87;99796.92;104536;1297;60453;-81
2023/02/01 14:27:40;;;;;;;;;;;;;;;4.39;84.93;99796.09;104496;1297;74345;-81
2023/02/01 14:30:26;;;;;;;;;;;;;;;4.40;84.91;99796.59;104583;1296;67473;-81
2023/02/01 14:33:18;;;;;;;;;;;;;;;4.39;84.83;99795.23;104490;1297;74055;-81
2023/02/01 14:36:07;;;;;;;;;;;;;;;4.38;84.85;99793.86;104582;1297;59890;-81
2023/02/01 14:38:53;;;;;;;;;;;;;;;4.39;84.87;99789.77;104535;1297;62101;-81
2023/02/01 14:41:41;;;;;;;;;;;;;;;4.40;84.91;99792.15;104831;1288;75860;-81
2023/02/01 14:44:29;;;;;;;;;;;;;;;4.42;84.89;99788.39;105353;1288;66177;-81
2023/02/01 14:47:35;;;;;;;;;;;;;;;4.44;84.88;99789.23;105142;1288;71161;-81
2023/02/01 14:50:35;;;;;;;;;;;;;;;4.47;84.89;99788.70;104483;1293;332029;-81
2023/02/01 14:53:25;;;;;;;;;;;;;;;4.49;84.86;99788.02;104795;1294;62103;-81
2023/02/01 14:56:16;;;;;;;;;;;;;;;4.51;84.86;99788.02;104775;1294;76322;-81
2023/02/01 14:59:09;;;;;;;;;;;;;;;4.51;84.81;99789.71;104795;1294;66140;-81
2023/02/01 15:01:57;;;;;;;;;;;;;;;4.50;84.75;99789.21;104756;1294;72065;-81
2023/02/01 15:04:44;;;;;;;;;;;;;;;4.49;84.72;99788.52;104779;1294;62113;-81
2023/02/01 15:07:30;;;;;;;;;;;;;;;4.45;84.71;99785.48;104770;1294;60094;-81
2023/02/01 15:10:18;;;;;;;;;;;;;;;4.44;84.73;99785.48;104691;1294;74384;-81